createdAt,value
2022-09-26T00:00:43.229Z,70.9
2022-09-26T00:01:43.331Z,71.38
2022-09-26T00:02:43.117Z,71.09
2022-09-26T00:03:43.167Z,71.19
2022-09-26T00:04:43.634Z,71.57
2022-09-26T00:05:42.949Z,71.09
2022-09-26T00:06:43.237Z,71
2022-09-26T00:07:43.247Z,71.57
2022-09-26T00:08:43.265Z,71
2022-09-26T00:09:43.016Z,71.09
2022-09-26T00:10:43.306Z,71.47
2022-09-26T00:11:43.320Z,71.47
2022-09-26T00:12:43.341Z,71.28
2022-09-26T00:13:43.093Z,71.09
2022-09-26T00:14:43.375Z,71
2022-09-26T00:15:43.387Z,71.38
2022-09-26T00:16:43.553Z,71.09
2022-09-26T00:17:43.423Z,71.09
2022-09-26T00:18:43.189Z,71.28
2022-09-26T00:19:43.203Z,71.09
2022-09-26T00:20:43.500Z,71
2022-09-26T00:21:43.500Z,70.9
2022-09-26T00:22:43.514Z,71.28
2022-09-26T00:23:43.533Z,71.19
2022-09-26T00:24:43.550Z,71.19
2022-09-26T00:25:43.566Z,70.9
2022-09-26T00:26:43.330Z,71.28
2022-09-26T00:27:43.599Z,71.28
2022-09-26T00:28:43.620Z,71.19
2022-09-26T00:29:43.637Z,71.57
2022-09-26T00:30:43.494Z,71.09
2022-09-26T00:31:43.675Z,71.09
2022-09-26T00:32:43.719Z,71.47
2022-09-26T00:33:43.707Z,71
2022-09-26T00:34:43.730Z,71.19
2022-09-26T00:35:43.491Z,71.09
2022-09-26T00:36:43.539Z,71.09
2022-09-26T00:37:43.523Z,71.09
2022-09-26T00:38:43.805Z,71.09
2022-09-26T00:39:43.565Z,71.09
2022-09-26T00:40:43.771Z,71.19
2022-09-26T00:41:43.856Z,71.09
2022-09-26T00:42:43.872Z,71.57
2022-09-26T00:43:43.908Z,70.9
2022-09-26T00:44:43.659Z,71.09
2022-09-26T00:45:44.430Z,71.47
2022-09-26T00:46:43.951Z,70.9
2022-09-26T00:47:43.958Z,70.9
2022-09-26T00:48:44.013Z,71.19
2022-09-26T00:49:43.744Z,71.28
2022-09-26T00:50:43.757Z,71.09
2022-09-26T00:51:44.032Z,71.09
2022-09-26T00:52:44.084Z,71.28
2022-09-26T00:53:44.070Z,70.81
2022-09-26T00:54:44.100Z,71
2022-09-26T00:55:43.848Z,71.09
2022-09-26T00:56:44.125Z,71.09
2022-09-26T00:57:44.145Z,71
2022-09-26T00:58:44.158Z,71.19
2022-09-26T00:59:44.191Z,71.19
2022-09-26T01:00:44.968Z,70.81
2022-09-26T01:01:44.575Z,70.9
2022-09-26T01:02:44.385Z,70.9
2022-09-26T01:03:43.995Z,71.09
2022-09-26T01:04:44.298Z,71.09
2022-09-26T01:05:44.291Z,71.09
2022-09-26T01:06:44.313Z,71.28
2022-09-26T01:07:44.329Z,71.09
2022-09-26T01:08:44.445Z,71.19
2022-09-26T01:09:44.362Z,71.38
2022-09-26T01:10:44.374Z,71.19
2022-09-26T01:11:44.396Z,71.09
2022-09-26T01:12:44.416Z,71.38
2022-09-26T01:13:44.433Z,71.57
2022-09-26T01:14:44.189Z,71.38
2022-09-26T01:15:44.212Z,71.57
2022-09-26T01:16:44.452Z,71.57
2022-09-26T01:17:44.510Z,71.47
2022-09-26T01:18:44.265Z,71.44
2022-09-26T01:19:44.543Z,71.57
2022-09-26T01:20:44.584Z,71.53
2022-09-26T01:21:44.321Z,71.57
2022-09-26T01:22:44.591Z,71.57
2022-09-26T01:23:44.374Z,71.34
2022-09-26T01:24:44.736Z,71.47
2022-09-26T01:25:44.402Z,71.53
2022-09-26T01:26:44.674Z,71.57
2022-09-26T01:27:44.694Z,71.57
2022-09-26T01:28:44.444Z,71.28
2022-09-26T01:29:44.462Z,71.47
2022-09-26T01:30:44.663Z,71.47
2022-09-26T01:31:44.771Z,71.44
2022-09-26T01:32:44.524Z,71
2022-09-26T01:33:44.798Z,71.19
2022-09-26T01:34:44.818Z,71.15
2022-09-26T01:35:44.577Z,71.09
2022-09-26T01:36:44.875Z,70.96
2022-09-26T01:37:44.867Z,71.25
2022-09-26T01:38:44.633Z,71.09
2022-09-26T01:39:44.909Z,71.25
2022-09-26T01:40:45.063Z,71.25
2022-09-26T01:41:44.685Z,71.25
2022-09-26T01:42:44.960Z,71.25
2022-09-26T01:43:44.979Z,71.34
2022-09-26T01:44:44.993Z,71.15
2022-09-26T01:45:44.951Z,70.96
2022-09-26T01:46:45.029Z,71.44
2022-09-26T01:47:44.797Z,71.34
2022-09-26T01:48:45.062Z,71.34
2022-09-26T01:49:45.087Z,70.87
2022-09-26T01:50:45.101Z,71.38
2022-09-26T01:51:44.862Z,71.25
2022-09-26T01:52:45.162Z,71
2022-09-26T01:53:45.157Z,70.96
2022-09-26T01:54:45.178Z,71.06
2022-09-26T01:55:45.195Z,70.96
2022-09-26T01:56:45.001Z,71.44
2022-09-26T01:57:44.971Z,71.63
2022-09-26T01:58:45.250Z,71.44
2022-09-26T01:59:45.265Z,71.92
2022-09-26T02:00:45.418Z,71.82
2022-09-26T02:01:45.511Z,71.72
2022-09-26T02:02:45.540Z,71.63
2022-09-26T02:03:45.327Z,71.63
2022-09-26T02:04:45.356Z,71.63
2022-09-26T02:05:45.366Z,71.63
2022-09-26T02:06:45.395Z,71.34
2022-09-26T02:07:45.408Z,71.44
2022-09-26T02:08:45.453Z,71.44
2022-09-26T02:09:45.442Z,71.63
2022-09-26T02:10:45.610Z,71.63
2022-09-26T02:11:45.475Z,71.72
2022-09-26T02:12:45.520Z,71.63
2022-09-26T02:13:45.258Z,71.72
2022-09-26T02:14:45.531Z,71.92
2022-09-26T02:15:45.290Z,71.44
2022-09-26T02:16:45.467Z,71.82
2022-09-26T02:17:45.580Z,71.63
2022-09-26T02:18:45.606Z,71.72
2022-09-26T02:19:45.361Z,71.63
2022-09-26T02:20:45.642Z,71.72
2022-09-26T02:21:45.655Z,71.44
2022-09-26T02:22:45.679Z,71.63
2022-09-26T02:23:45.686Z,71.63
2022-09-26T02:24:45.740Z,72.01
2022-09-26T02:25:45.478Z,71.53
2022-09-26T02:26:45.746Z,71.72
2022-09-26T02:27:45.766Z,71.63
2022-09-26T02:28:45.810Z,71.53
2022-09-26T02:29:45.813Z,71.63
2022-09-26T02:30:45.817Z,71.72
2022-09-26T02:31:45.974Z,72.01
2022-09-26T02:32:45.595Z,72.01
2022-09-26T02:33:45.866Z,71.44
2022-09-26T02:34:45.893Z,71.38
2022-09-26T02:35:45.908Z,71.44
2022-09-26T02:36:45.921Z,71.44
2022-09-26T02:37:45.948Z,70.96
2022-09-26T02:38:45.955Z,70.96
2022-09-26T02:39:45.994Z,71.63
2022-09-26T02:40:46.184Z,71.44
2022-09-26T02:41:46.023Z,71.34
2022-09-26T02:42:45.777Z,71.44
2022-09-26T02:43:46.056Z,71.44
2022-09-26T02:44:46.096Z,71.25
2022-09-26T02:45:45.989Z,71.44
2022-09-26T02:46:46.114Z,71.47
2022-09-26T02:47:45.865Z,71.15
2022-09-26T02:48:46.140Z,71.63
2022-09-26T02:49:45.903Z,71.44
2022-09-26T02:50:45.917Z,70.96
2022-09-26T02:51:46.200Z,71.34
2022-09-26T02:52:45.960Z,70.96
2022-09-26T02:53:46.226Z,71.67
2022-09-26T02:54:46.247Z,71.15
2022-09-26T02:55:46.026Z,71.25
2022-09-26T02:56:46.305Z,71.25
2022-09-26T02:57:46.304Z,71.25
2022-09-26T02:58:46.317Z,70.96
2022-09-26T02:59:46.339Z,71.63
2022-09-26T03:00:46.553Z,71.34
2022-09-26T03:01:46.221Z,71.34
2022-09-26T03:02:46.393Z,71.63
2022-09-26T03:03:46.352Z,71.34
2022-09-26T03:04:46.323Z,71.44
2022-09-26T03:05:46.468Z,71.63
2022-09-26T03:06:46.483Z,71.92
2022-09-26T03:07:46.484Z,71.44
2022-09-26T03:08:46.503Z,71.44
2022-09-26T03:09:46.527Z,70.96
2022-09-26T03:10:46.587Z,71.25
2022-09-26T03:11:46.565Z,70.96
2022-09-26T03:12:46.594Z,70.96
2022-09-26T03:13:46.336Z,71.44
2022-09-26T03:14:46.610Z,71.34
2022-09-26T03:15:46.626Z,71.34
2022-09-26T03:16:46.907Z,71.53
2022-09-26T03:17:46.664Z,70.96
2022-09-26T03:18:46.682Z,71.63
2022-09-26T03:19:46.700Z,70.96
2022-09-26T03:20:46.725Z,70.96
2022-09-26T03:21:46.490Z,70.87
2022-09-26T03:22:46.751Z,71.44
2022-09-26T03:23:46.766Z,71.63
2022-09-26T03:24:46.787Z,71.44
2022-09-26T03:25:46.812Z,71.44
2022-09-26T03:26:46.566Z,71.72
2022-09-26T03:27:46.835Z,71.72
2022-09-26T03:28:46.897Z,71.63
2022-09-26T03:29:46.876Z,71.44
2022-09-26T03:30:46.893Z,71.72
2022-09-26T03:31:46.812Z,71.34
2022-09-26T03:32:46.961Z,71.76
2022-09-26T03:33:46.948Z,71.72
2022-09-26T03:34:46.967Z,72.01
2022-09-26T03:35:46.996Z,71.34
2022-09-26T03:36:47.025Z,71.44
2022-09-26T03:37:47.023Z,71.63
2022-09-26T03:38:47.039Z,71.72
2022-09-26T03:39:47.057Z,71.72
2022-09-26T03:40:47.245Z,71.82
2022-09-26T03:41:47.090Z,71.72
2022-09-26T03:42:46.861Z,71.72
2022-09-26T03:43:46.873Z,71.72
2022-09-26T03:44:47.176Z,71.44
2022-09-26T03:45:47.339Z,71.72
2022-09-26T03:46:47.190Z,71.53
2022-09-26T03:47:47.201Z,71.72
2022-09-26T03:48:47.255Z,71.72
2022-09-26T03:49:46.982Z,71.44
2022-09-26T03:50:47.258Z,71.44
2022-09-26T03:51:47.276Z,72.01
2022-09-26T03:52:47.034Z,71.72
2022-09-26T03:53:47.322Z,71.72
2022-09-26T03:54:47.336Z,71.72
2022-09-26T03:55:47.091Z,71.67
2022-09-26T03:56:47.104Z,71.72
2022-09-26T03:57:47.380Z,71.63
2022-09-26T03:58:47.389Z,71.53
2022-09-26T03:59:47.168Z,71.72
2022-09-26T04:00:47.702Z,71.67
2022-09-26T04:01:47.391Z,71.72
2022-09-26T04:02:47.222Z,71.72
2022-09-26T04:03:52.687Z,71.72
2022-09-26T04:04:47.516Z,71.82
2022-09-26T04:05:47.278Z,71.63
2022-09-26T04:06:47.544Z,71.72
2022-09-26T04:07:47.557Z,71.82
2022-09-26T04:08:47.575Z,71.53
2022-09-26T04:09:47.604Z,71.53
2022-09-26T04:10:47.821Z,71.44
2022-09-26T04:11:47.630Z,71.72
2022-09-26T04:12:47.395Z,71.53
2022-09-26T04:13:56.360Z,71.63
2022-09-26T04:14:47.431Z,71.44
2022-09-26T04:15:47.706Z,71.72
2022-09-26T04:16:47.921Z,71.53
2022-09-26T04:17:47.741Z,71.63
2022-09-26T04:18:47.497Z,71.63
2022-09-26T04:19:47.801Z,71.44
2022-09-26T04:20:47.792Z,71.53
2022-09-26T04:21:47.557Z,71.53
2022-09-26T04:22:47.575Z,71.63
2022-09-26T04:23:47.848Z,71.63
2022-09-26T04:24:47.858Z,71.44
2022-09-26T04:25:47.893Z,71.92
2022-09-26T04:26:47.906Z,71.63
2022-09-26T04:27:47.920Z,71.63
2022-09-26T04:28:47.684Z,71.63
2022-09-26T04:29:47.968Z,71.92
2022-09-26T04:30:47.971Z,72.01
2022-09-26T04:31:47.887Z,71.44
2022-09-26T04:32:48.035Z,71.92
2022-09-26T04:33:48.030Z,71.44
2022-09-26T04:34:47.786Z,71.44
2022-09-26T04:35:48.090Z,71.92
2022-09-26T04:36:48.083Z,71.63
2022-09-26T04:37:47.847Z,71.63
2022-09-26T04:38:48.129Z,71.82
2022-09-26T04:39:48.141Z,72.01
2022-09-26T04:40:47.999Z,71.63
2022-09-26T04:41:48.173Z,72.01
2022-09-26T04:42:47.931Z,71.82
2022-09-26T04:43:48.205Z,72.01
2022-09-26T04:44:48.227Z,71.72
2022-09-26T04:45:48.418Z,71.86
2022-09-26T04:46:48.258Z,72.01
2022-09-26T04:47:48.027Z,71.82
2022-09-26T04:48:48.322Z,72.01
2022-09-26T04:49:48.317Z,71.72
2022-09-26T04:50:48.083Z,72.01
2022-09-26T04:51:48.385Z,72.01
2022-09-26T04:52:48.364Z,71.82
2022-09-26T04:53:48.392Z,72.2
2022-09-26T04:54:48.400Z,72.01
2022-09-26T04:55:48.441Z,72.01
2022-09-26T04:56:48.438Z,72.05
2022-09-26T04:57:48.460Z,71.92
2022-09-26T04:58:48.218Z,72.01
2022-09-26T04:59:48.236Z,71.72
2022-09-26T05:00:48.600Z,71.72
2022-09-26T05:01:48.453Z,72.11
2022-09-26T05:02:48.297Z,71.92
2022-09-26T05:03:48.567Z,71.92
2022-09-26T05:04:48.624Z,72.11
2022-09-26T05:05:48.343Z,71.82
2022-09-26T05:06:48.624Z,71.72
2022-09-26T05:07:48.669Z,71.82
2022-09-26T05:08:48.654Z,72.01
2022-09-26T05:09:48.678Z,71.92
2022-09-26T05:10:48.490Z,72.05
2022-09-26T05:11:48.703Z,71.63
2022-09-26T05:12:48.471Z,71.63
2022-09-26T05:13:54.860Z,71.82
2022-09-26T05:14:48.504Z,72.05
2022-09-26T05:15:48.780Z,71.63
2022-09-26T05:16:48.988Z,72.01
2022-09-26T05:17:48.817Z,71.82
2022-09-26T05:18:48.835Z,72.01
2022-09-26T05:19:48.848Z,71.92
2022-09-26T05:20:48.899Z,72.11
2022-09-26T05:21:49.055Z,72.01
2022-09-26T05:22:48.913Z,72.11
2022-09-26T05:23:48.952Z,72.01
2022-09-26T05:24:48.931Z,72.11
2022-09-26T05:25:48.965Z,72.11
2022-09-26T05:26:48.981Z,72.11
2022-09-26T05:27:48.743Z,71.92
2022-09-26T05:28:49.025Z,71.82
2022-09-26T05:29:49.034Z,71.92
2022-09-26T05:30:49.054Z,71.92
2022-09-26T05:31:49.254Z,71.82
2022-09-26T05:32:48.830Z,72.11
2022-09-26T05:33:48.849Z,72.2
2022-09-26T05:34:48.861Z,72.2
2022-09-26T05:35:49.135Z,72.01
2022-09-26T05:36:49.194Z,71.92
2022-09-26T05:37:49.165Z,71.82
2022-09-26T05:38:48.939Z,71.92
2022-09-26T05:39:48.980Z,72.2
2022-09-26T05:40:49.481Z,72.01
2022-09-26T05:41:49.246Z,72.11
2022-09-26T05:42:49.271Z,71.82
2022-09-26T05:43:49.283Z,71.82
2022-09-26T05:44:49.049Z,71.92
2022-09-26T05:45:49.317Z,72.33
2022-09-26T05:46:49.288Z,71.63
2022-09-26T05:47:49.355Z,71.86
2022-09-26T05:48:49.406Z,71.82
2022-09-26T05:49:49.137Z,72.2
2022-09-26T05:50:49.160Z,71.82
2022-09-26T05:51:49.433Z,72.05
2022-09-26T05:52:49.466Z,72.11
2022-09-26T05:53:49.215Z,71.92
2022-09-26T05:54:49.231Z,72.05
2022-09-26T05:55:49.529Z,71.86
2022-09-26T05:56:49.265Z,72.05
2022-09-26T05:57:49.535Z,71.76
2022-09-26T05:58:49.590Z,72.05
2022-09-26T05:59:49.320Z,71.86
2022-09-26T06:00:49.789Z,72.05
2022-09-26T06:01:49.757Z,71.76
2022-09-26T06:02:49.642Z,71.86
2022-09-26T06:03:50.423Z,71.86
2022-09-26T06:04:49.464Z,71.63
2022-09-26T06:05:49.690Z,71.86
2022-09-26T06:06:49.704Z,72.05
2022-09-26T06:07:49.727Z,71.86
2022-09-26T06:08:49.765Z,71.95
2022-09-26T06:09:49.759Z,71.86
2022-09-26T06:10:50.135Z,71.95
2022-09-26T06:11:49.821Z,72.14
2022-09-26T06:12:53.464Z,71.86
2022-09-26T06:13:49.575Z,72.05
2022-09-26T06:14:49.592Z,71.95
2022-09-26T06:15:49.896Z,71.76
2022-09-26T06:16:50.061Z,71.76
2022-09-26T06:17:49.912Z,72.05
2022-09-26T06:18:49.924Z,72.05
2022-09-26T06:19:49.941Z,71.86
2022-09-26T06:20:49.961Z,71.95
2022-09-26T06:21:49.974Z,71.86
2022-09-26T06:22:49.751Z,72.05
2022-09-26T06:23:50.034Z,72.05
2022-09-26T06:24:50.056Z,71.86
2022-09-26T06:25:49.803Z,72.24
2022-09-26T06:26:49.808Z,71.86
2022-09-26T06:27:50.113Z,71.95
2022-09-26T06:28:49.842Z,71.86
2022-09-26T06:29:50.133Z,71.86
2022-09-26T06:30:49.880Z,71.86
2022-09-26T06:31:50.319Z,72.14
2022-09-26T06:32:50.178Z,72.14
2022-09-26T06:33:50.205Z,71.86
2022-09-26T06:34:49.960Z,71.86
2022-09-26T06:35:50.233Z,71.86
2022-09-26T06:36:49.994Z,71.86
2022-09-26T06:37:50.019Z,72.05
2022-09-26T06:38:50.286Z,72.05
2022-09-26T06:39:50.308Z,71.67
2022-09-26T06:40:50.436Z,72.05
2022-09-26T06:41:50.408Z,72.05
2022-09-26T06:42:50.356Z,71.47
2022-09-26T06:43:50.147Z,71.47
2022-09-26T06:44:50.399Z,71.67
2022-09-26T06:45:50.417Z,71.57
2022-09-26T06:46:50.601Z,71.47
2022-09-26T06:47:50.454Z,71.57
2022-09-26T06:48:50.479Z,71.76
2022-09-26T06:49:50.491Z,71.86
2022-09-26T06:50:50.506Z,71.67
2022-09-26T06:51:50.352Z,71.76
2022-09-26T06:52:50.570Z,71.67
2022-09-26T06:53:50.572Z,71.47
2022-09-26T06:54:50.328Z,71.38
2022-09-26T06:55:50.601Z,71.38
2022-09-26T06:56:50.644Z,71.28
2022-09-26T06:57:50.637Z,71.19
2022-09-26T06:58:50.402Z,71.22
2022-09-26T06:59:50.695Z,71.03
2022-09-26T07:00:51.013Z,71.09
2022-09-26T07:01:51.011Z,71.28
2022-09-26T07:02:50.472Z,71.32
2022-09-26T07:03:50.489Z,71.22
2022-09-26T07:04:51.813Z,71.61
2022-09-26T07:05:50.780Z,71.61
2022-09-26T07:06:50.810Z,71.51
2022-09-26T07:07:50.817Z,71.57
2022-09-26T07:09:08.682Z,71.42
2022-09-26T07:09:51.002Z,71.61
2022-09-26T07:10:50.619Z,71.42
2022-09-26T07:12:16.501Z,71.19
2022-09-26T07:12:50.937Z,71.13
2022-09-26T07:13:50.932Z,71.42
2022-09-26T07:14:55.788Z,71.19
2022-09-26T07:15:50.843Z,71.22
2022-09-26T07:16:50.755Z,71.42
2022-09-26T07:17:50.787Z,71.03
2022-09-26T07:18:50.777Z,70.94
2022-09-26T07:19:51.041Z,71.51
2022-09-26T07:20:56.878Z,71.61
2022-09-26T07:21:50.822Z,71.42
2022-09-26T07:22:51.106Z,71.22
2022-09-26T07:23:51.126Z,71.42
2022-09-26T07:24:50.880Z,71.51
2022-09-26T07:25:50.901Z,71.13
2022-09-26T07:26:51.173Z,71.22
2022-09-26T07:27:50.933Z,70.94
2022-09-26T07:28:56.956Z,70.94
2022-09-26T07:29:50.980Z,71.32
2022-09-26T07:30:51.015Z,71.22
2022-09-26T07:31:51.674Z,71.03
2022-09-26T07:32:51.289Z,71.13
2022-09-26T07:33:51.298Z,71.22
2022-09-26T07:34:51.327Z,70.65
2022-09-26T07:35:51.082Z,70.75
2022-09-26T07:36:51.365Z,70.75
2022-09-26T07:37:51.383Z,71.22
2022-09-26T07:38:51.137Z,71.22
2022-09-26T07:39:59.424Z,70.75
2022-09-26T07:40:51.615Z,71.22
2022-09-26T07:41:51.459Z,71.13
2022-09-26T07:43:20.333Z,70.65
2022-09-26T07:45:31.348Z,71.22
2022-09-26T07:46:19.439Z,71.22
2022-09-26T07:47:19.323Z,70.65
2022-09-26T07:48:19.080Z,70.84
2022-09-26T07:49:19.101Z,70.94
2022-09-26T07:50:19.379Z,70.75
2022-09-26T07:51:19.396Z,70.75
2022-09-26T07:52:19.412Z,70.94
2022-09-26T07:53:19.449Z,70.84
2022-09-26T07:54:19.450Z,71.22
2022-09-26T07:55:19.476Z,70.17
2022-09-26T07:56:19.230Z,70.97
2022-09-26T07:57:19.537Z,70.5
2022-09-26T07:58:19.558Z,70.5
2022-09-26T07:59:19.559Z,70.5
2022-09-26T08:00:19.729Z,70.21
2022-09-26T08:01:19.763Z,70.5
2022-09-26T08:02:19.900Z,69.82
2022-09-26T08:03:19.556Z,70.11
2022-09-26T08:04:19.633Z,69.73
2022-09-26T08:05:19.670Z,69.82
2022-09-26T08:06:19.676Z,70.4
2022-09-26T08:07:19.693Z,70.15
2022-09-26T08:08:19.458Z,69.73
2022-09-26T08:09:19.764Z,69.82
2022-09-26T08:10:19.747Z,69.57
2022-09-26T08:11:19.975Z,69.76
2022-09-26T08:12:19.532Z,69.76
2022-09-26T08:13:19.805Z,69.67
2022-09-26T08:14:19.575Z,69.64
2022-09-26T08:15:19.849Z,69.44
2022-09-26T08:16:20.004Z,69.57
2022-09-26T08:17:19.916Z,69.29
2022-09-26T08:18:19.670Z,69.19
2022-09-26T08:19:19.802Z,69.38
2022-09-26T08:20:19.679Z,69.29
2022-09-26T08:21:19.963Z,69.15
2022-09-26T08:22:19.717Z,69.19
2022-09-26T08:23:19.998Z,69.38
2022-09-26T08:24:20.011Z,69.19
2022-09-26T08:25:19.780Z,69.38
2022-09-26T08:26:20.054Z,69.19
2022-09-26T08:27:20.076Z,69.19
2022-09-26T08:28:20.091Z,69.38
2022-09-26T08:29:20.116Z,69.38
2022-09-26T08:30:20.180Z,69.38
2022-09-26T08:31:20.049Z,69.38
2022-09-26T08:32:20.171Z,69.29
2022-09-26T08:33:20.227Z,69.19
2022-09-26T08:34:26.298Z,69.19
2022-09-26T08:35:19.972Z,69.38
2022-09-26T08:36:20.250Z,69.48
2022-09-26T08:37:20.263Z,69.38
2022-09-26T08:38:20.287Z,69.38
2022-09-26T08:39:20.292Z,69.38
2022-09-26T08:40:20.471Z,69.38
2022-09-26T08:41:20.343Z,69.19
2022-09-26T08:42:20.101Z,69.19
2022-09-26T08:43:20.383Z,69.48
2022-09-26T08:44:20.411Z,69.38
2022-09-26T08:45:20.153Z,69.38
2022-09-26T08:46:20.559Z,69.48
2022-09-26T08:47:20.459Z,69.57
2022-09-26T08:48:20.484Z,69.57
2022-09-26T08:49:20.511Z,69.19
2022-09-26T08:50:20.545Z,68.9
2022-09-26T08:51:22.440Z,68.8
2022-09-26T08:52:20.541Z,68.9
2022-09-26T08:53:20.574Z,68.52
2022-09-26T08:54:20.595Z,68.8
2022-09-26T08:55:20.607Z,69.29
2022-09-26T08:56:20.622Z,68.8
2022-09-26T08:57:20.383Z,69.29
2022-09-26T08:58:22.398Z,69
2022-09-26T08:59:20.685Z,69.09
2022-09-26T09:00:20.715Z,68.8
2022-09-26T09:01:20.655Z,69.19
2022-09-26T09:02:21.101Z,69.09
2022-09-26T09:03:20.865Z,68.9
2022-09-26T09:04:20.778Z,68.8
2022-09-26T09:05:20.821Z,68.62
2022-09-26T09:06:20.707Z,68.84
2022-09-26T09:07:20.834Z,68.84
2022-09-26T09:08:20.867Z,68.8
2022-09-26T09:09:20.889Z,68.94
2022-09-26T09:10:20.709Z,68.65
2022-09-26T09:11:20.921Z,68.65
2022-09-26T09:12:28.957Z,68.42
2022-09-26T09:13:20.698Z,68.62
2022-09-26T09:14:20.980Z,68.42
2022-09-26T09:15:28.391Z,68.27
2022-09-26T09:16:20.885Z,68.27
2022-09-26T09:17:20.800Z,68.46
2022-09-26T09:18:20.797Z,68.36
2022-09-26T09:19:21.070Z,68.36
2022-09-26T09:20:21.146Z,68.13
2022-09-26T09:21:21.136Z,68.55
2022-09-26T09:22:21.166Z,68.33
2022-09-26T09:23:21.144Z,68.8
2022-09-26T09:24:21.181Z,68.62
2022-09-26T09:25:20.932Z,69
2022-09-26T09:28:11.435Z,68.71
2022-09-26T09:29:18.659Z,68.62
2022-09-26T09:30:19.641Z,68.84
2022-09-26T09:31:11.119Z,68.8
2022-09-26T09:32:11.042Z,68.65
2022-09-26T09:33:10.797Z,68.84
2022-09-26T09:34:11.272Z,68.8
2022-09-26T09:35:11.132Z,68.62
2022-09-26T09:36:11.128Z,68.55
2022-09-26T09:37:11.169Z,68.71
2022-09-26T09:38:11.185Z,68.74
2022-09-26T09:39:10.917Z,68.62
2022-09-26T09:40:11.255Z,68.74
2022-09-26T09:41:11.226Z,68.46
2022-09-26T09:42:11.246Z,68.84
2022-09-26T09:43:10.993Z,68.84
2022-09-26T09:44:11.497Z,68.52
2022-09-26T09:45:11.045Z,68.74
2022-09-26T09:46:11.182Z,68.62
2022-09-26T09:47:11.326Z,68.8
2022-09-26T09:48:11.098Z,68.94
2022-09-26T09:49:11.373Z,68.65
2022-09-26T09:50:11.384Z,68.55
2022-09-26T09:51:11.152Z,68.94
2022-09-26T09:52:11.430Z,69.03
2022-09-26T09:53:11.492Z,68.84
2022-09-26T09:54:11.659Z,68.94
2022-09-26T09:55:11.238Z,68.27
2022-09-26T09:56:11.505Z,68.46
2022-09-26T09:57:11.288Z,69.13
2022-09-26T09:58:11.551Z,68.46
2022-09-26T09:59:11.565Z,68.46
2022-09-26T10:00:11.606Z,68.46
2022-09-26T10:01:11.599Z,68.55
2022-09-26T10:02:11.630Z,68.84
2022-09-26T10:03:11.869Z,68.27
2022-09-26T10:04:11.560Z,68.17
2022-09-26T10:05:11.688Z,68.65
2022-09-26T10:06:47.510Z,68.55
2022-09-26T10:07:11.721Z,67.98
2022-09-26T10:08:11.753Z,68.46
2022-09-26T10:09:41.561Z,68.65
2022-09-26T10:10:11.524Z,68.74
2022-09-26T10:11:11.808Z,68.17
2022-09-26T10:12:11.565Z,68.36
2022-09-26T10:13:11.837Z,68.74
2022-09-26T10:14:11.797Z,68.36
2022-09-26T10:15:11.630Z,67.79
2022-09-26T10:16:11.821Z,67.88
2022-09-26T10:17:11.935Z,68.07
2022-09-26T10:18:28.892Z,68.17
2022-09-26T10:19:11.953Z,67.88
2022-09-26T10:20:11.971Z,68.17
2022-09-26T10:21:11.739Z,68.36
2022-09-26T10:22:12.008Z,68.07
2022-09-26T10:23:11.779Z,68.17
2022-09-26T10:24:12.268Z,68.74
2022-09-26T10:25:12.150Z,68.74
2022-09-26T10:26:11.829Z,68.65
2022-09-26T10:27:12.115Z,68.65
2022-09-26T10:28:12.128Z,68.46
2022-09-26T10:29:12.153Z,68.55
2022-09-26T10:30:12.173Z,68.36
2022-09-26T10:31:12.433Z,68.74
2022-09-26T10:32:12.206Z,67.88
2022-09-26T10:33:12.233Z,68.74
2022-09-26T10:34:12.009Z,68.74
2022-09-26T10:35:15.050Z,68.46
2022-09-26T10:36:12.031Z,68.78
2022-09-26T10:37:12.313Z,68.68
2022-09-26T10:38:12.070Z,68.3
2022-09-26T10:39:12.350Z,67.91
2022-09-26T10:40:12.438Z,68.21
2022-09-26T10:41:12.535Z,68.11
2022-09-26T10:42:12.407Z,68.01
2022-09-26T10:43:12.176Z,68.4
2022-09-26T10:44:12.465Z,68.68
2022-09-26T10:45:12.465Z,68.4
2022-09-26T10:46:12.373Z,68.3
2022-09-26T10:47:12.508Z,68.11
2022-09-26T10:48:12.526Z,68.78
2022-09-26T10:49:12.287Z,68.68
2022-09-26T10:50:12.556Z,68.68
2022-09-26T10:51:12.605Z,68.78
2022-09-26T10:52:18.736Z,68.21
2022-09-26T10:53:12.367Z,68.49
2022-09-26T10:54:12.704Z,68.3
2022-09-26T10:55:12.672Z,68.4
2022-09-26T10:56:12.702Z,68.4
2022-09-26T10:57:13.057Z,68.78
2022-09-26T10:58:16.107Z,68.68
2022-09-26T10:59:12.746Z,68.87
2022-09-26T11:00:12.956Z,68.87
2022-09-26T11:01:12.941Z,68.78
2022-09-26T11:02:12.975Z,68.68
2022-09-26T11:03:12.643Z,68.87
2022-09-26T11:04:12.812Z,69.07
2022-09-26T11:05:12.614Z,68.3
2022-09-26T11:06:12.622Z,68.11
2022-09-26T11:07:12.907Z,68.68
2022-09-26T11:08:12.659Z,68.21
2022-09-26T11:09:12.938Z,68.4
2022-09-26T11:10:12.967Z,68.4
2022-09-26T11:11:12.979Z,68.49
2022-09-26T11:12:13.004Z,68.87
2022-09-26T11:13:13.085Z,68.97
2022-09-26T11:14:12.958Z,68.87
2022-09-26T11:15:13.110Z,68.4
2022-09-26T11:16:13.198Z,68.3
2022-09-26T11:17:13.127Z,68.59
2022-09-26T11:18:13.120Z,68.3
2022-09-26T11:19:13.155Z,68.87
2022-09-26T11:20:12.951Z,68.4
2022-09-26T11:21:30.318Z,68.87
2022-09-26T11:22:12.936Z,68.87
2022-09-26T11:23:12.946Z,68.78
2022-09-26T11:24:13.237Z,68.36
2022-09-26T11:25:13.236Z,68.59
2022-09-26T11:26:13.267Z,68.94
2022-09-26T11:27:13.029Z,68.55
2022-09-26T11:28:13.304Z,68.65
2022-09-26T11:29:13.426Z,69.23
2022-09-26T11:30:13.098Z,68.74
2022-09-26T11:31:13.521Z,68.65
2022-09-26T11:32:13.382Z,69.03
2022-09-26T11:33:13.404Z,68.97
2022-09-26T11:34:13.427Z,69.23
2022-09-26T11:35:13.430Z,68.84
2022-09-26T11:36:13.483Z,68.74
2022-09-26T11:37:13.219Z,69.32
2022-09-26T11:38:13.268Z,68.65
2022-09-26T11:39:13.514Z,68.94
2022-09-26T11:40:13.373Z,68.74
2022-09-26T11:41:13.554Z,68.84
2022-09-26T11:42:13.332Z,69.03
2022-09-26T11:43:13.613Z,69.51
2022-09-26T11:44:13.450Z,69.51
2022-09-26T11:45:13.681Z,69.23
2022-09-26T11:46:13.748Z,69.89
2022-09-26T11:47:13.668Z,69.42
2022-09-26T11:48:13.435Z,69.6
2022-09-26T11:49:13.704Z,69.6
2022-09-26T11:50:13.542Z,69.7
2022-09-26T11:51:13.496Z,69.6
2022-09-26T11:52:13.774Z,69.8
2022-09-26T11:53:13.788Z,69.7
2022-09-26T11:54:13.884Z,69.7
2022-09-26T11:55:13.825Z,70.28
2022-09-26T11:56:13.587Z,70.28
2022-09-26T11:57:13.815Z,70.18
2022-09-26T11:58:13.888Z,70.47
2022-09-26T11:59:13.921Z,70.37
2022-09-26T12:00:13.665Z,69.99
2022-09-26T12:01:13.999Z,70.18
2022-09-26T12:02:14.268Z,70.37
2022-09-26T12:03:14.297Z,70.37
2022-09-26T12:04:14.441Z,70.18
2022-09-26T12:05:14.046Z,70.37
2022-09-26T12:06:13.786Z,70.56
2022-09-26T12:07:13.806Z,70.37
2022-09-26T12:08:13.841Z,69.89
2022-09-26T12:09:14.099Z,70.85
2022-09-26T12:10:14.136Z,70.37
2022-09-26T12:11:14.146Z,70.56
2022-09-26T12:12:14.162Z,70.66
2022-09-26T12:13:14.188Z,69.8
2022-09-26T12:14:14.326Z,69.89
2022-09-26T12:15:13.969Z,70.28
2022-09-26T12:16:14.427Z,70.47
2022-09-26T12:17:14.316Z,70.76
2022-09-26T12:18:14.276Z,69.89
2022-09-26T12:19:18.872Z,70.56
2022-09-26T12:20:14.322Z,70.56
2022-09-26T12:21:14.086Z,70.85
2022-09-26T12:22:14.100Z,70.56
2022-09-26T12:23:14.377Z,70.37
2022-09-26T12:24:14.643Z,70.66
2022-09-26T12:25:20.136Z,70.66
2022-09-26T12:26:14.434Z,70.66
2022-09-26T12:27:14.460Z,70.85
2022-09-26T12:28:14.490Z,70.56
2022-09-26T12:29:14.505Z,70.66
2022-09-26T12:30:14.510Z,70.47
2022-09-26T12:31:19.921Z,70.56
2022-09-26T12:32:14.570Z,70.56
2022-09-26T12:33:14.657Z,70.95
2022-09-26T12:34:14.472Z,70.37
2022-09-26T12:35:14.358Z,70.85
2022-09-26T12:36:14.629Z,70.76
2022-09-26T12:37:14.664Z,70.95
2022-09-26T12:38:14.672Z,70.85
2022-09-26T12:39:14.868Z,70.85
2022-09-26T12:40:14.769Z,70.56
2022-09-26T12:41:14.738Z,70.56
2022-09-26T12:42:14.495Z,71.04
2022-09-26T12:43:14.777Z,70.47
2022-09-26T12:44:14.787Z,70.56
2022-09-26T12:45:14.818Z,70.95
2022-09-26T12:46:14.976Z,70.76
2022-09-26T12:47:14.853Z,70.76
2022-09-26T12:48:14.606Z,71.14
2022-09-26T12:49:15.081Z,71.2
2022-09-26T12:50:14.905Z,71.23
2022-09-26T12:51:14.920Z,70.85
2022-09-26T12:52:14.942Z,70.76
2022-09-26T12:53:14.706Z,71.04
2022-09-26T12:54:14.987Z,71.01
2022-09-26T12:55:15.002Z,70.76
2022-09-26T12:56:14.765Z,71.04
2022-09-26T12:57:15.183Z,70.95
2022-09-26T12:58:15.072Z,71.14
2022-09-26T12:59:15.408Z,71.14